createdAt,value
2018-05-15T00:01:06.919Z,94211.69
2018-05-15T00:04:10.162Z,94212.19
2018-05-15T00:07:13.433Z,94211.08
2018-05-15T00:10:16.681Z,94204.91
2018-05-15T00:13:19.939Z,94197.60
2018-05-15T00:16:23.201Z,94202.92
2018-05-15T00:19:26.454Z,94199.10
2018-05-15T00:22:29.709Z,94194.58
2018-05-15T00:25:32.990Z,94194.68
2018-05-15T00:28:36.242Z,94188.20
2018-05-15T00:31:39.510Z,94193.72
2018-05-15T00:34:42.775Z,94189.44
2018-05-15T00:37:46.053Z,94191.65
2018-05-15T00:40:50.132Z,94203.94
2018-05-15T00:43:53.466Z,94208.17
2018-05-15T00:46:57.492Z,94199.35
2018-05-15T00:50:01.603Z,94206.88
2018-05-15T00:53:04.779Z,94208.52
2018-05-15T00:56:08.046Z,94207.93
2018-05-15T00:59:11.301Z,94211.33
2018-05-15T01:02:14.565Z,94213.61
2018-05-15T01:05:17.819Z,94206.98
2018-05-15T01:08:21.850Z,94207.72
2018-05-15T01:11:25.124Z,94204.74
2018-05-15T01:14:28.403Z,94205.34
2018-05-15T01:17:31.663Z,94200.86
2018-05-15T01:20:34.918Z,94205.31
2018-05-15T01:23:38.226Z,94203.23
2018-05-15T01:26:41.450Z,94206.63
2018-05-15T01:29:44.734Z,94208.30
2018-05-15T01:32:48.799Z,94210.84
2018-05-15T01:35:52.058Z,94199.38
2018-05-15T01:38:55.321Z,94205.80
2018-05-15T01:41:58.601Z,94206.63
2018-05-15T01:45:01.863Z,94203.36
2018-05-15T01:48:05.124Z,94208.95
2018-05-15T01:51:08.460Z,94209.17
2018-05-15T01:54:12.475Z,94207.88
2018-05-15T01:57:15.744Z,94203.03
2018-05-15T02:00:19.545Z,94210.36
2018-05-15T02:03:22.815Z,94206.33
2018-05-15T02:06:26.066Z,94215.02
2018-05-15T02:09:30.090Z,94217.57
2018-05-15T02:12:35.163Z,94220.02
2018-05-15T02:15:38.424Z,94214.63
2018-05-15T02:18:42.488Z,94210.25
2018-05-15T02:21:45.749Z,94212.31
2018-05-15T02:24:49.770Z,94214.15
2018-05-15T02:27:53.036Z,94212.81
2018-05-15T02:30:56.289Z,94204.41
2018-05-15T02:33:59.543Z,94209.53
2018-05-15T02:37:02.809Z,94207.27
2018-05-15T02:40:06.065Z,94209.41
2018-05-15T02:43:09.409Z,94215.93
2018-05-15T02:46:12.659Z,94218.06
2018-05-15T02:49:16.701Z,94217.81
2018-05-15T02:52:19.964Z,94216.05
2018-05-15T02:55:23.993Z,94223.58
2018-05-15T02:58:27.276Z,94224.09
2018-05-15T03:01:31.330Z,94228.00
2018-05-15T03:04:34.584Z,94225.38
2018-05-15T03:07:38.617Z,94219.83
2018-05-15T03:10:41.883Z,94222.04
2018-05-15T03:13:46.097Z,94233.67
2018-05-15T03:16:49.365Z,94235.73
2018-05-15T03:19:52.628Z,94234.18
2018-05-15T03:22:56.656Z,94233.33
2018-05-15T03:25:59.946Z,94239.53
2018-05-15T03:29:03.978Z,94244.12
2018-05-15T03:32:08.004Z,94253.54
2018-05-15T03:35:11.261Z,94252.64
2018-05-15T03:38:14.531Z,94252.12
2018-05-15T03:41:17.793Z,94260.25
2018-05-15T03:44:21.061Z,94264.47
2018-05-15T03:47:24.332Z,94271.77
2018-05-15T03:50:27.609Z,94277.45
2018-05-15T03:53:31.010Z,94284.36
2018-05-15T03:56:34.297Z,94284.41
2018-05-15T03:59:37.549Z,94290.39
2018-05-15T04:02:58.688Z,94288.25
2018-05-15T04:06:20.380Z,94299.06
2018-05-15T04:09:23.649Z,94298.47
2018-05-15T04:12:26.942Z,94297.83
2018-05-15T04:15:30.185Z,94302.56
2018-05-15T04:18:33.460Z,94300.62
2018-05-15T04:21:36.768Z,94306.89
2018-05-15T04:24:40.056Z,94310.96
2018-05-15T04:27:44.086Z,94305.28
2018-05-15T04:30:49.180Z,94317.73
2018-05-15T04:33:52.464Z,94315.86
2018-05-15T04:36:55.724Z,94309.64
2018-05-15T04:39:59.043Z,94312.86
2018-05-15T04:43:02.329Z,94318.91
2018-05-15T04:46:05.819Z,94318.66
2018-05-15T04:49:09.226Z,94318.09
2018-05-15T04:52:12.629Z,94322.82
2018-05-15T04:55:16.008Z,94327.02
2018-05-15T04:58:19.331Z,94320.47
2018-05-15T05:01:22.614Z,94327.61
2018-05-15T05:04:26.645Z,94338.84
2018-05-15T05:07:29.888Z,94338.52
2018-05-15T05:10:33.161Z,94344.89
2018-05-15T05:13:36.538Z,94349.84
2018-05-15T05:16:39.890Z,94341.99
2018-05-15T05:19:43.145Z,94347.94
2018-05-15T05:22:46.411Z,94353.97
2018-05-15T05:25:49.676Z,94349.11
2018-05-15T05:28:53.041Z,94347.59
2018-05-15T05:31:57.049Z,94345.45
2018-05-15T05:35:00.320Z,94348.31
2018-05-15T05:38:03.582Z,94346.02
2018-05-15T05:41:07.615Z,94352.83
2018-05-15T05:44:11.635Z,94353.91
2018-05-15T05:47:14.885Z,94358.42
2018-05-15T05:50:18.147Z,94364.25
2018-05-15T05:53:21.423Z,94363.67
2018-05-15T05:56:24.677Z,94368.80
2018-05-15T05:59:28.702Z,94364.88
2018-05-15T06:02:32.745Z,94358.55
2018-05-15T06:05:36.767Z,94365.69
2018-05-15T06:08:40.793Z,94375.65
2018-05-15T06:11:44.710Z,94375.65
2018-05-15T06:14:47.983Z,94381.30
2018-05-15T06:17:51.233Z,94385.75
2018-05-15T06:20:54.531Z,94388.34
2018-05-15T06:23:58.290Z,94386.75
2018-05-15T06:27:01.534Z,94392.92
2018-05-15T06:30:04.793Z,94402.67
2018-05-15T06:33:08.076Z,94403.95
2018-05-15T06:36:11.333Z,94403.78
2018-05-15T06:39:15.377Z,94409.22
2018-05-15T06:42:18.632Z,94405.81
2018-05-15T06:45:21.887Z,94408.48
2018-05-15T06:48:25.915Z,94418.96
2018-05-15T06:51:29.930Z,94419.52
2018-05-15T06:54:33.201Z,94420.11
2018-05-15T06:57:36.449Z,94419.25
2018-05-15T07:00:39.710Z,94426.20
2018-05-15T07:03:42.966Z,94421.45
2018-05-15T07:06:46.981Z,94420.89
2018-05-15T07:09:50.237Z,94427.08
2018-05-15T07:12:53.498Z,94423.98
2018-05-15T07:15:56.762Z,94417.83
2018-05-15T07:19:00.031Z,94416.07
2018-05-15T07:22:03.357Z,94423.84
2018-05-15T07:25:06.609Z,94431.42
2018-05-15T07:28:09.883Z,94427.74
2018-05-15T07:31:13.730Z,94430.45
2018-05-15T07:34:16.983Z,94435.47
2018-05-15T07:37:21.003Z,94429.93
2018-05-15T07:40:24.270Z,94430.02
2018-05-15T07:43:28.979Z,94425.09
2018-05-15T07:46:32.248Z,94438.81
2018-05-15T07:49:35.503Z,94434.70
2018-05-15T07:52:39.847Z,94440.48
2018-05-15T07:55:43.134Z,94440.09
2018-05-15T07:58:47.157Z,94437.34
2018-05-15T08:01:51.259Z,94438.64
2018-05-15T08:04:54.529Z,94439.23
2018-05-15T08:07:57.820Z,94444.92
2018-05-15T08:11:01.865Z,94445.67
2018-05-15T08:14:05.122Z,94435.46
2018-05-15T08:17:08.386Z,94439.72
2018-05-15T08:20:11.651Z,94443.95
2018-05-15T08:23:15.738Z,94446.11
2018-05-15T08:26:19.014Z,94449.82
2018-05-15T08:29:22.266Z,94451.58
2018-05-15T08:32:26.311Z,94454.02
2018-05-15T08:35:29.561Z,94447.61
2018-05-15T08:38:33.591Z,94454.00
2018-05-15T08:41:37.625Z,94452.81
2018-05-15T08:44:40.882Z,94453.45
2018-05-15T08:47:44.139Z,94454.99
2018-05-15T08:50:48.146Z,94462.23
2018-05-15T08:53:51.413Z,94464.36
2018-05-15T08:56:55.445Z,94471.95
2018-05-15T09:00:00.189Z,94470.62
2018-05-15T09:03:03.441Z,94469.78
2018-05-15T09:06:06.774Z,94468.62
2018-05-15T09:09:10.813Z,94467.67
2018-05-15T09:12:14.071Z,94470.34
2018-05-15T09:15:17.330Z,94476.44
2018-05-15T09:18:20.699Z,94476.98
2018-05-15T09:21:23.877Z,94481.02
2018-05-15T09:24:27.133Z,94475.14
2018-05-15T09:27:30.388Z,94477.77
2018-05-15T09:30:34.431Z,94475.09
2018-05-15T09:33:37.705Z,94481.05
2018-05-15T09:36:42.766Z,94478.03
2018-05-15T09:39:46.035Z,94479.05
2018-05-15T09:42:50.064Z,94484.88
2018-05-15T09:45:53.333Z,94486.31
2018-05-15T09:48:56.914Z,94490.62
2018-05-15T09:52:00.193Z,94489.84
2018-05-15T09:55:03.562Z,94480.89
2018-05-15T09:58:07.613Z,94486.25
2018-05-15T10:01:10.866Z,94479.44
2018-05-15T10:04:14.886Z,94486.17
2018-05-15T10:07:18.922Z,94480.63
2018-05-15T10:10:22.198Z,94472.75
2018-05-15T10:13:25.466Z,94470.67
2018-05-15T10:16:28.740Z,94461.92
2018-05-15T10:19:31.993Z,94475.08
2018-05-15T10:22:36.040Z,94466.27
2018-05-15T10:25:39.298Z,94480.06
2018-05-15T10:28:42.554Z,94481.36
2018-05-15T10:31:45.820Z,94483.86
2018-05-15T10:34:49.075Z,94472.45
2018-05-15T10:37:52.338Z,94469.23
2018-05-15T10:40:55.613Z,94465.39
2018-05-15T10:43:58.918Z,94456.28
2018-05-15T10:47:02.137Z,94461.92
2018-05-15T10:50:05.398Z,94459.78
2018-05-15T10:53:08.654Z,94469.33
2018-05-15T10:56:11.928Z,94464.62
2018-05-15T10:59:15.939Z,94462.09
2018-05-15T11:02:19.962Z,94455.34
2018-05-15T11:05:23.988Z,94458.31
2018-05-15T11:08:28.076Z,94456.92
2018-05-15T11:11:31.335Z,94459.64
2018-05-15T11:14:34.587Z,94456.14
2018-05-15T11:17:38.619Z,94458.42
2018-05-15T11:21:00.291Z,94446.82
2018-05-15T11:27:50.671Z,94450.20
2018-05-15T11:30:54.707Z,94459.34
2018-05-15T11:33:58.744Z,94456.66
2018-05-15T11:37:02.005Z,94455.91
2018-05-15T11:40:05.256Z,94449.05
2018-05-15T11:43:08.521Z,94453.92
2018-05-15T11:46:12.562Z,94456.55
2018-05-15T11:49:16.256Z,94449.20
2018-05-15T11:52:20.072Z,94446.87
2018-05-15T11:55:22.364Z,94448.00
2018-05-15T11:58:26.402Z,94452.47
2018-05-15T12:01:29.662Z,94460.22
2018-05-15T12:04:32.938Z,94461.66
2018-05-15T12:07:36.203Z,94460.42
2018-05-15T12:10:40.241Z,94465.52
2018-05-15T12:13:43.515Z,94468.98
2018-05-15T12:16:46.776Z,94466.99
2018-05-15T12:19:50.789Z,94480.51
2018-05-15T12:22:54.881Z,94470.39
2018-05-15T12:25:58.168Z,94467.69
2018-05-15T12:29:01.422Z,94467.60
2018-05-15T12:32:04.685Z,94467.87
2018-05-15T12:35:09.748Z,94466.75
2018-05-15T12:38:15.078Z,94465.41
2018-05-15T12:41:18.396Z,94464.68
2018-05-15T12:44:21.601Z,94462.19
2018-05-15T12:47:24.855Z,94469.00
2018-05-15T12:50:28.112Z,94470.55
2018-05-15T12:53:32.499Z,94469.98
2018-05-15T12:56:35.762Z,94470.85
2018-05-15T12:59:39.016Z,94473.64
2018-05-15T13:02:42.279Z,94479.38
2018-05-15T13:05:45.539Z,94482.27
2018-05-15T13:08:48.834Z,94483.13
2018-05-15T13:11:52.198Z,94483.67
2018-05-15T13:14:55.470Z,94488.45
2018-05-15T13:17:58.733Z,94493.50
2018-05-15T13:21:02.085Z,94497.09
2018-05-15T13:24:05.473Z,94501.72
2018-05-15T13:27:09.714Z,94491.05
2018-05-15T13:30:13.839Z,94490.89
2018-05-15T13:33:17.947Z,94486.91
2018-05-15T13:36:21.248Z,94492.80
2018-05-15T13:39:24.566Z,94492.16
2018-05-15T13:42:28.743Z,94490.77
2018-05-15T13:45:32.003Z,94493.06
2018-05-15T13:48:35.473Z,94492.13
2018-05-15T13:51:39.563Z,94488.78
2018-05-15T13:54:43.638Z,94489.30
2018-05-15T13:57:47.002Z,94481.97
2018-05-15T14:00:50.280Z,94481.66
2018-05-15T14:03:53.619Z,94482.84
2018-05-15T14:06:57.277Z,94490.69
2018-05-15T14:10:01.741Z,94483.89
2018-05-15T14:13:05.096Z,94478.95
2018-05-15T14:16:08.367Z,94484.66
2018-05-15T14:19:11.697Z,94478.08
2018-05-15T14:22:14.910Z,94483.22
2018-05-15T14:25:18.174Z,94481.38
2018-05-15T14:28:21.437Z,94479.08
2018-05-15T14:31:25.690Z,94469.14
2018-05-15T14:34:29.786Z,94475.19
2018-05-15T14:37:33.114Z,94472.95
2018-05-15T14:40:36.500Z,94469.22
2018-05-15T14:43:40.091Z,94460.13
2018-05-15T14:46:43.376Z,94461.57
2018-05-15T14:49:46.755Z,94454.06
2018-05-15T14:52:50.024Z,94456.22
2018-05-15T14:55:53.306Z,94456.38
2018-05-15T14:58:56.558Z,94454.37
2018-05-15T15:01:59.870Z,94458.75
2018-05-15T15:05:03.344Z,94460.98
2018-05-15T15:08:06.637Z,94460.71
2018-05-15T15:11:09.927Z,94460.68
2018-05-15T15:14:13.949Z,94445.27
2018-05-15T15:17:18.078Z,94451.09
2018-05-15T15:20:22.139Z,94447.10
2018-05-15T15:23:25.539Z,94442.17
2018-05-15T15:26:28.806Z,94435.28
2018-05-15T15:29:32.967Z,94426.82
2018-05-15T15:32:36.262Z,94433.34
2018-05-15T15:35:39.624Z,94426.94
2018-05-15T15:38:42.939Z,94420.28
2018-05-15T15:41:46.326Z,94421.82
2018-05-15T15:44:49.616Z,94420.30
2018-05-15T15:47:52.878Z,94420.01
2018-05-15T15:50:57.052Z,94420.67
2018-05-15T15:54:00.377Z,94422.45
2018-05-15T15:57:03.710Z,94423.98
2018-05-15T16:00:07.735Z,94424.84
2018-05-15T16:03:11.081Z,94426.88
2018-05-15T16:06:14.346Z,94431.91
2018-05-15T16:09:18.533Z,94435.74
2018-05-15T16:12:21.943Z,94438.23
2018-05-15T16:15:25.233Z,94435.95
2018-05-15T16:18:28.538Z,94433.48
2018-05-15T16:21:31.802Z,94438.16
2018-05-15T16:24:35.128Z,94438.11
2018-05-15T16:27:38.454Z,94436.96
2018-05-15T16:30:41.702Z,94437.63
2018-05-15T16:33:45.763Z,94436.96
2018-05-15T16:36:49.031Z,94440.63
2018-05-15T16:39:53.273Z,94444.20
2018-05-15T16:42:56.965Z,94440.95
2018-05-15T16:46:01.667Z,94440.16
2018-05-15T16:49:06.604Z,94433.94
2018-05-15T16:52:10.646Z,94432.20
2018-05-15T16:55:14.675Z,94443.31
2018-05-15T16:58:18.781Z,94449.88
2018-05-15T17:01:22.085Z,94453.59
2018-05-15T17:04:26.228Z,94449.30
2018-05-15T17:07:30.269Z,94452.95
2018-05-15T17:10:33.544Z,94448.39
2018-05-15T17:13:38.002Z,94450.86
2018-05-15T17:16:41.473Z,94452.34
2018-05-15T17:19:44.849Z,94444.91
2018-05-15T17:22:48.210Z,94440.72
2018-05-15T17:25:52.328Z,94435.92
2018-05-15T17:28:56.362Z,94442.69
2018-05-15T17:31:59.637Z,94455.08
2018-05-15T17:35:03.793Z,94459.23
2018-05-15T17:38:07.097Z,94461.50
2018-05-15T17:41:10.447Z,94468.52
2018-05-15T17:44:13.723Z,94489.30
2018-05-15T17:47:17.023Z,94499.52
2018-05-15T17:50:20.329Z,94523.52
2018-05-15T17:53:23.705Z,94534.22
2018-05-15T17:56:27.123Z,94550.66
2018-05-15T17:59:30.482Z,94555.71
2018-05-15T18:02:33.786Z,94569.66
2018-05-15T18:05:37.843Z,94568.61
2018-05-15T18:08:41.458Z,94572.27
2018-05-15T18:11:44.717Z,94583.08
2018-05-15T18:14:47.992Z,94595.65
2018-05-15T18:17:51.290Z,94593.92
2018-05-15T18:20:54.732Z,94604.45
2018-05-15T18:23:57.991Z,94601.55
2018-05-15T18:27:01.265Z,94612.09
2018-05-15T18:30:04.529Z,94613.53
2018-05-15T18:33:08.904Z,94614.30
2018-05-15T18:36:12.251Z,94606.39
2018-05-15T18:39:15.644Z,94603.82
2018-05-15T18:42:18.905Z,94602.63
2018-05-15T18:45:22.191Z,94604.27
2018-05-15T18:48:26.190Z,94601.80
2018-05-15T18:51:29.456Z,94602.73
2018-05-15T18:54:32.741Z,94608.58
2018-05-15T18:57:36.213Z,94612.28
2018-05-15T19:00:39.589Z,94606.42
2018-05-15T19:03:43.745Z,94593.56
2018-05-15T19:06:47.096Z,94567.25
2018-05-15T19:09:50.301Z,94548.01
2018-05-15T19:12:53.596Z,94546.88
2018-05-15T19:15:57.674Z,94540.73
2018-05-15T19:19:00.950Z,94537.53
2018-05-15T19:22:04.207Z,94535.59
2018-05-15T19:25:07.465Z,94544.33
2018-05-15T19:28:10.777Z,94545.95
2018-05-15T19:31:16.906Z,94541.19
2018-05-15T19:34:24.902Z,94539.53
2018-05-15T19:37:28.230Z,94539.08
2018-05-15T19:40:32.249Z,94549.23
2018-05-15T19:43:35.503Z,94554.84
2018-05-15T19:46:40.793Z,94552.56
2018-05-15T19:49:47.294Z,94560.09
2018-05-15T19:52:50.619Z,94562.38
2018-05-15T19:55:53.961Z,94571.20
2018-05-15T19:58:57.236Z,94576.29
2018-05-15T20:02:00.608Z,94580.45
2018-05-15T20:05:04.537Z,94588.14
2018-05-15T20:08:08.559Z,94588.52
2018-05-15T20:11:12.161Z,94599.72
2018-05-15T20:14:15.426Z,94600.05
2018-05-15T20:17:18.699Z,94606.70
2018-05-15T20:20:22.755Z,94607.11
2018-05-15T20:23:26.008Z,94614.20
2018-05-15T20:26:29.275Z,94612.78
2018-05-15T20:29:32.527Z,94612.87
2018-05-15T20:32:35.932Z,94612.03
2018-05-15T20:35:39.194Z,94606.48
2018-05-15T20:38:42.448Z,94612.09
2018-05-15T20:41:45.707Z,94611.09
2018-05-15T20:44:49.801Z,94613.05
2018-05-15T20:47:53.105Z,94611.61
2018-05-15T20:50:57.153Z,94613.19
2018-05-15T20:54:00.411Z,94606.99
2018-05-15T20:57:03.678Z,94603.83
2018-05-15T21:00:06.938Z,94605.98
2018-05-15T21:03:10.211Z,94603.27
2018-05-15T21:06:14.234Z,94607.16
2018-05-15T21:09:17.529Z,94610.26
2018-05-15T21:12:21.546Z,94605.22
2018-05-15T21:15:25.562Z,94612.50
2018-05-15T21:18:28.818Z,94605.48
2018-05-15T21:21:32.089Z,94608.50
2018-05-15T21:24:36.202Z,94610.70
2018-05-15T21:27:39.459Z,94612.67
2018-05-15T21:30:43.509Z,94604.94
2018-05-15T21:33:46.765Z,94604.98
2018-05-15T21:36:50.183Z,94600.28
2018-05-15T21:39:53.392Z,94589.61
2018-05-15T21:42:57.412Z,94588.95
2018-05-15T21:46:00.673Z,94600.36
2018-05-15T21:49:03.938Z,94600.42
2018-05-15T21:52:07.963Z,94602.28
2018-05-15T21:55:11.210Z,94608.34
2018-05-15T21:58:14.458Z,94603.47
2018-05-15T22:01:17.715Z,94607.84
2018-05-15T22:04:21.739Z,94605.95
2018-05-15T22:07:24.995Z,94607.03
2018-05-15T22:10:28.330Z,94607.09
2018-05-15T22:13:49.906Z,94617.94
2018-05-15T22:17:10.849Z,94615.73
2018-05-15T22:20:31.896Z,94615.34
2018-05-15T22:23:35.165Z,94617.77
2018-05-15T22:26:38.484Z,94622.70
2018-05-15T22:29:41.732Z,94618.88
2018-05-15T22:32:44.999Z,94614.83
2018-05-15T22:35:49.339Z,94615.05
2018-05-15T22:38:53.377Z,94615.27
2018-05-15T22:41:57.572Z,94618.59
2018-05-15T22:45:01.582Z,94625.83
2018-05-15T22:48:05.611Z,94614.27
2018-05-15T22:51:09.634Z,94607.61
2018-05-15T22:54:12.930Z,94608.37
2018-05-15T22:57:16.954Z,94608.20
2018-05-15T23:00:20.368Z,94611.09
2018-05-15T23:03:23.651Z,94612.30
2018-05-15T23:06:27.695Z,94613.94
2018-05-15T23:09:30.941Z,94606.11
2018-05-15T23:12:34.258Z,94602.50
2018-05-15T23:15:38.358Z,94600.03
2018-05-15T23:18:41.558Z,94607.94
2018-05-15T23:21:44.835Z,94599.81
2018-05-15T23:24:48.107Z,94604.34
2018-05-15T23:27:51.365Z,94599.48
2018-05-15T23:30:54.629Z,94604.54
2018-05-15T23:33:57.865Z,94602.53
2018-05-15T23:37:01.130Z,94611.94
2018-05-15T23:40:04.386Z,94613.36
2018-05-15T23:43:08.531Z,94611.13
2018-05-15T23:46:11.791Z,94610.38
2018-05-15T23:49:15.029Z,94615.59
2018-05-15T23:52:19.157Z,94617.33
2018-05-15T23:55:22.502Z,94608.73
2018-05-15T23:58:25.778Z,94607.94
